PWSweather.com
Personal Weather Stations
Station Observations
PENICUIKWS
PenicuikGB

PenicuikGB

Lat: 55.830932, Lon: -3.224533000000065

Elevation: 166

Station Type: Fine Offset

http://weather.penicuik.org

High Low Average
Temperature 40.3°F4.6°C 29.5°F-1.4°C 36.4°F2.4°C
Dew Point 35.7°F2.1°C 22.7°F-5.2°C 28.3°F-2.1°C
Winds 10.3 mph 16.6 kmh Calm Calm 5.0 mph E8.0 kmh E
Wind Gusts 17.4 mph28.0 kmh -- 8.0 mph12.9 kmh
Humidity 93% 59% 73%
Pressure 30.42 in1030.1 mb 29.69 in1005.4 mb -
Precipitation 0.13 in3.3 mm - -
Hour Temp Dew Point Humidity Winds Wind Gusts Pressure Precip Precip Rate Daily Precip Total
12:00 AM 37.6°F3.1°C 35.7°F2.1°C 93% 6.8 mph NNE10.9 kmh NNE 9.2 mph14.8 kmh 29.69 in1005.4 mb 0.00 in0.0 mm 0.00 in0.0 mm 0.00 in0.0 mm
12:15 AM 37.4°F3.0°C 35.3°F1.8°C 92% 5.8 mph N9.3 kmh N 6.9 mph11.1 kmh 29.70 in1005.8 mb 0.00 in0.0 mm 0.00 in0.0 mm 0.00 in0.0 mm
12:30 AM 37.6°F3.1°C 35.5°F1.9°C 92% 7.2 mph NNE11.6 kmh NNE 9.2 mph14.8 kmh 29.71 in1006.1 mb 0.00 in0.0 mm 0.00 in0.0 mm 0.00 in0.0 mm
01:00 AM 37.2°F2.9°C 34.0°F1.1°C 88% 5.9 mph N9.5 kmh N 8.3 mph13.4 kmh 29.73 in1006.8 mb 0.01 in0.3 mm 0.02 in0.5 mm 0.01 in0.3 mm
01:15 AM 37.6°F3.1°C 35.7°F2.1°C 93% 6.8 mph N10.9 kmh N 9.2 mph14.8 kmh 29.73 in1006.8 mb 0.01 in0.3 mm 0.00 in0.0 mm 0.01 in0.3 mm
01:30 AM 37.6°F3.1°C 35.7°F2.1°C 93% 7.0 mph N11.3 kmh N 8.3 mph13.4 kmh 29.75 in1007.5 mb 0.01 in0.3 mm 0.00 in0.0 mm 0.01 in0.3 mm
01:45 AM 37.6°F3.1°C 35.5°F1.9°C 92% 6.5 mph NE10.5 kmh NE 8.3 mph13.4 kmh 29.75 in1007.5 mb 0.01 in0.3 mm 0.00 in0.0 mm 0.02 in0.5 mm
02:15 AM 36.9°F2.7°C 33.6°F0.9°C 88% 6.6 mph NNE10.6 kmh NNE 11.4 mph18.3 kmh 29.77 in1008.1 mb 0.05 in1.3 mm 0.08 in2.0 mm 0.06 in1.5 mm
02:30 AM 37.0°F2.8°C 34.1°F1.2°C 89% 4.8 mph NNE7.7 kmh NNE 9.2 mph14.8 kmh 29.78 in1008.5 mb 0.05 in1.3 mm 0.00 in0.0 mm 0.06 in1.5 mm
02:45 AM 37.4°F3.0°C 35.6°F2.0°C 93% 4.3 mph N6.9 kmh N 6.0 mph9.7 kmh 29.79 in1008.8 mb 0.04 in1.0 mm 0.00 in0.0 mm 0.06 in1.5 mm
03:15 AM 37.4°F3.0°C 35.3°F1.8°C 92% 7.6 mph N12.2 kmh N 10.7 mph17.2 kmh 29.80 in1009.1 mb 0.00 in0.0 mm 0.00 in0.0 mm 0.06 in1.5 mm
03:30 AM 37.4°F3.0°C 35.3°F1.8°C 92% 7.4 mph N11.9 kmh N 11.4 mph18.3 kmh 29.81 in1009.5 mb 0.00 in0.0 mm 0.00 in0.0 mm 0.06 in1.5 mm
04:15 AM 37.6°F3.1°C 35.5°F1.9°C 92% 7.3 mph N11.7 kmh N 9.8 mph15.8 kmh 29.84 in1010.5 mb 0.04 in1.0 mm 0.16 in4.1 mm 0.09 in2.3 mm
04:30 AM 37.4°F3.0°C 35.0°F1.7°C 91% 7.7 mph N12.4 kmh N 13.0 mph20.9 kmh 29.84 in1010.5 mb 0.04 in1.0 mm 0.00 in0.0 mm 0.09 in2.3 mm
04:45 AM 36.9°F2.7°C 32.5°F0.3°C 84% 4.7 mph NNE7.6 kmh NNE 6.0 mph9.7 kmh 29.85 in1010.8 mb 0.04 in1.0 mm 0.00 in0.0 mm 0.11 in2.8 mm
05:00 AM 37.6°F3.1°C 34.9°F1.6°C 90% 8.6 mph NNE13.8 kmh NNE 12.1 mph19.5 kmh 29.86 in1011.2 mb 0.02 in0.5 mm 0.00 in0.0 mm 0.12 in3.0 mm
05:15 AM 37.9°F3.3°C 35.0°F1.7°C 89% 6.4 mph NNE10.3 kmh NNE 9.2 mph14.8 kmh 29.88 in1011.9 mb 0.02 in0.5 mm 0.00 in0.0 mm 0.12 in3.0 mm
05:30 AM 37.9°F3.3°C 34.4°F1.3°C 87% 7.9 mph N12.7 kmh N 11.4 mph18.3 kmh 29.89 in1012.2 mb 0.02 in0.5 mm 0.00 in0.0 mm 0.12 in3.0 mm
05:45 AM 37.9°F3.3°C 33.8°F1.0°C 85% 7.3 mph NNE11.7 kmh NNE 11.4 mph18.3 kmh 29.90 in1012.5 mb 0.01 in0.3 mm 0.00 in0.0 mm 0.12 in3.0 mm
06:00 AM 37.6°F3.1°C 33.5°F0.8°C 85% 6.2 mph NNE10.0 kmh NNE 9.2 mph14.8 kmh 29.92 in1013.2 mb 0.00 in0.0 mm 0.00 in0.0 mm 0.12 in3.0 mm
06:15 AM 37.2°F2.9°C 31.9°F-0.1°C 81% 10.3 mph N16.6 kmh N 17.4 mph28.0 kmh 29.93 in1013.5 mb 0.00 in0.0 mm 0.00 in0.0 mm 0.12 in3.0 mm
06:30 AM 37.0°F2.8°C 32.1°F0.1°C 82% 9.2 mph NNE14.8 kmh NNE 15.2 mph24.5 kmh 29.94 in1013.9 mb 0.01 in0.3 mm 0.04 in1.0 mm 0.13 in3.3 mm
06:45 AM 36.5°F2.5°C 31.8°F-0.1°C 83% 8.7 mph N14.0 kmh N 13.0 mph20.9 kmh 29.95 in1014.2 mb 0.01 in0.3 mm 0.00 in0.0 mm 0.13 in3.3 mm
07:00 AM 36.1°F2.3°C 31.8°F-0.1°C 84% 9.0 mph N14.5 kmh N 13.6 mph21.9 kmh 29.96 in1014.6 mb 0.01 in0.3 mm 0.00 in0.0 mm 0.13 in3.3 mm
07:15 AM 36.5°F2.5°C 31.8°F-0.1°C 83% 7.5 mph N12.1 kmh N 12.1 mph19.5 kmh 29.96 in1014.6 mb 0.01 in0.3 mm 0.00 in0.0 mm 0.13 in3.3 mm
07:30 AM 37.0°F2.8°C 31.1°F-0.5°C 79% 8.5 mph N13.7 kmh N 13.6 mph21.9 kmh 29.97 in1014.9 mb 0.00 in0.0 mm 0.00 in0.0 mm 0.13 in3.3 mm
07:45 AM 36.9°F2.7°C 30.3°F-0.9°C 77% 6.9 mph NNE11.1 kmh NNE 9.8 mph15.8 kmh 29.98 in1015.2 mb 0.00 in0.0 mm 0.00 in0.0 mm 0.13 in3.3 mm
08:00 AM 36.9°F2.7°C 29.0°F-1.7°C 73% 7.6 mph N12.2 kmh N 13.0 mph20.9 kmh 29.99 in1015.6 mb 0.00 in0.0 mm 0.00 in0.0 mm 0.13 in3.3 mm
08:15 AM 36.5°F2.5°C 28.3°F-2.1°C 72% 9.2 mph N14.8 kmh N 14.5 mph23.3 kmh 30.00 in1015.9 mb 0.00 in0.0 mm 0.00 in0.0 mm 0.13 in3.3 mm
08:30 AM 36.3°F2.4°C 27.8°F-2.3°C 71% 8.3 mph N13.4 kmh N 12.1 mph19.5 kmh 30.01 in1016.3 mb 0.00 in0.0 mm 0.00 in0.0 mm 0.13 in3.3 mm
08:45 AM 36.3°F2.4°C 27.5°F-2.5°C 70% 7.4 mph NNE11.9 kmh NNE 11.4 mph18.3 kmh 30.03 in1016.9 mb 0.00 in0.0 mm 0.00 in0.0 mm 0.13 in3.3 mm
09:00 AM 36.7°F2.6°C 27.1°F-2.7°C 68% 8.3 mph NE13.4 kmh NE 13.0 mph20.9 kmh 30.04 in1017.3 mb 0.00 in0.0 mm 0.00 in0.0 mm 0.13 in3.3 mm
09:15 AM 36.7°F2.6°C 26.8°F-2.9°C 67% 6.5 mph NNE10.5 kmh NNE 9.8 mph15.8 kmh 30.05 in1017.6 mb 0.00 in0.0 mm 0.00 in0.0 mm 0.13 in3.3 mm
09:30 AM 36.9°F2.7°C 25.8°F-3.4°C 64% 7.3 mph NNE11.7 kmh NNE 11.4 mph18.3 kmh 30.06 in1017.9 mb 0.00 in0.0 mm 0.00 in0.0 mm 0.13 in3.3 mm
09:45 AM 37.0°F2.8°C 25.2°F-3.8°C 62% 8.8 mph NNE14.2 kmh NNE 12.1 mph19.5 kmh 30.06 in1017.9 mb 0.00 in0.0 mm 0.00 in0.0 mm 0.13 in3.3 mm
10:00 AM 37.0°F2.8°C 25.2°F-3.8°C 62% 7.9 mph NNE12.7 kmh NNE 11.4 mph18.3 kmh 30.07 in1018.3 mb 0.00 in0.0 mm 0.00 in0.0 mm 0.13 in3.3 mm
10:15 AM 37.4°F3.0°C 27.1°F-2.7°C 66% 8.1 mph NNE13.0 kmh NNE 13.0 mph20.9 kmh 30.08 in1018.6 mb 0.00 in0.0 mm 0.00 in0.0 mm 0.13 in3.3 mm
10:30 AM 37.4°F3.0°C 27.1°F-2.7°C 66% 8.7 mph NE14.0 kmh NE 14.5 mph23.3 kmh 30.08 in1018.6 mb 0.00 in0.0 mm 0.00 in0.0 mm 0.13 in3.3 mm
10:45 AM 37.6°F3.1°C 26.9°F-2.8°C 65% 8.9 mph NNE14.3 kmh NNE 13.0 mph20.9 kmh 30.09 in1019.0 mb 0.00 in0.0 mm 0.00 in0.0 mm 0.13 in3.3 mm
11:00 AM 37.8°F3.2°C 27.4°F-2.6°C 66% 10.0 mph N16.1 kmh N 15.9 mph25.6 kmh 30.10 in1019.3 mb 0.00 in0.0 mm 0.00 in0.0 mm 0.13 in3.3 mm
11:15 AM 38.5°F3.6°C 28.1°F-2.2°C 66% 7.8 mph NE12.6 kmh NE 13.0 mph20.9 kmh 30.11 in1019.6 mb 0.00 in0.0 mm 0.00 in0.0 mm 0.13 in3.3 mm
11:30 AM 40.1°F4.5°C 28.9°F-1.7°C 64% 8.1 mph NNE13.0 kmh NNE 11.4 mph18.3 kmh 30.12 in1020.0 mb 0.00 in0.0 mm 0.00 in0.0 mm 0.13 in3.3 mm
11:45 AM 39.9°F4.4°C 28.7°F-1.8°C 64% 7.5 mph NNE12.1 kmh NNE 9.8 mph15.8 kmh 30.11 in1019.6 mb 0.00 in0.0 mm 0.00 in0.0 mm 0.13 in3.3 mm
12:00 PM 40.3°F4.6°C 28.3°F-2.1°C 62% 7.2 mph N11.6 kmh N 9.8 mph15.8 kmh 30.12 in1020.0 mb 0.00 in0.0 mm 0.00 in0.0 mm 0.13 in3.3 mm
12:15 PM 38.8°F3.8°C 28.1°F-2.2°C 65% 6.9 mph N11.1 kmh N 12.1 mph19.5 kmh 30.14 in1020.7 mb 0.00 in0.0 mm 0.00 in0.0 mm 0.13 in3.3 mm
12:30 PM 38.5°F3.6°C 27.4°F-2.6°C 64% 7.8 mph N12.6 kmh N 11.4 mph18.3 kmh 30.14 in1020.7 mb 0.00 in0.0 mm 0.00 in0.0 mm 0.13 in3.3 mm
12:45 PM 38.5°F3.6°C 27.4°F-2.6°C 64% 6.4 mph N10.3 kmh N 9.8 mph15.8 kmh 30.15 in1021.0 mb 0.00 in0.0 mm 0.00 in0.0 mm 0.13 in3.3 mm
01:00 PM 38.5°F3.6°C 28.1°F-2.2°C 66% 6.2 mph N10.0 kmh N 12.1 mph19.5 kmh 30.15 in1021.0 mb 0.00 in0.0 mm 0.00 in0.0 mm 0.13 in3.3 mm
01:15 PM 38.5°F3.6°C 27.4°F-2.6°C 64% 6.2 mph NNE10.0 kmh NNE 10.7 mph17.2 kmh 30.15 in1021.0 mb 0.00 in0.0 mm 0.00 in0.0 mm 0.13 in3.3 mm
01:30 PM 38.5°F3.6°C 27.0°F-2.8°C 63% 7.7 mph N12.4 kmh N 13.6 mph21.9 kmh 30.16 in1021.3 mb 0.00 in0.0 mm 0.00 in0.0 mm 0.13 in3.3 mm
01:45 PM 38.5°F3.6°C 27.4°F-2.6°C 64% 5.8 mph N9.3 kmh N 8.3 mph13.4 kmh 30.16 in1021.3 mb 0.00 in0.0 mm 0.00 in0.0 mm 0.13 in3.3 mm
02:00 PM 38.5°F3.6°C 27.4°F-2.6°C 64% 4.8 mph N7.7 kmh N 6.9 mph11.1 kmh 30.17 in1021.7 mb 0.00 in0.0 mm 0.00 in0.0 mm 0.13 in3.3 mm
02:15 PM 38.1°F3.4°C 26.7°F-2.9°C 63% 7.6 mph N12.2 kmh N 11.4 mph18.3 kmh 30.17 in1021.7 mb 0.00 in0.0 mm 0.00 in0.0 mm 0.13 in3.3 mm
02:30 PM 37.8°F3.2°C 26.3°F-3.2°C 63% 7.6 mph N12.2 kmh N 11.4 mph18.3 kmh 30.19 in1022.4 mb 0.00 in0.0 mm 0.00 in0.0 mm 0.13 in3.3 mm
02:45 PM 37.8°F3.2°C 26.7°F-2.9°C 64% 4.4 mph N7.1 kmh N 7.6 mph12.2 kmh 30.20 in1022.7 mb 0.00 in0.0 mm 0.00 in0.0 mm 0.13 in3.3 mm
03:00 PM 37.8°F3.2°C 26.7°F-2.9°C 64% 6.2 mph N10.0 kmh N 9.8 mph15.8 kmh 30.20 in1022.7 mb 0.00 in0.0 mm 0.00 in0.0 mm 0.13 in3.3 mm
03:15 PM 37.8°F3.2°C 26.3°F-3.2°C 63% 7.5 mph N12.1 kmh N 12.1 mph19.5 kmh 30.21 in1023.0 mb 0.00 in0.0 mm 0.00 in0.0 mm 0.13 in3.3 mm
03:30 PM 37.4°F3.0°C 26.4°F-3.1°C 64% 4.5 mph NNE7.2 kmh NNE 9.2 mph14.8 kmh 30.22 in1023.4 mb 0.00 in0.0 mm 0.00 in0.0 mm 0.13 in3.3 mm
03:45 PM 37.2°F2.9°C 24.6°F-4.1°C 60% 5.6 mph NNE9.0 kmh NNE 7.6 mph12.2 kmh 30.22 in1023.4 mb 0.00 in0.0 mm 0.00 in0.0 mm 0.13 in3.3 mm
04:00 PM 37.0°F2.8°C 24.1°F-4.4°C 59% 4.8 mph N7.7 kmh N 6.9 mph11.1 kmh 30.24 in1024.0 mb 0.00 in0.0 mm 0.00 in0.0 mm 0.13 in3.3 mm
04:15 PM 36.7°F2.6°C 24.1°F-4.4°C 60% 3.9 mph N6.3 kmh N 6.9 mph11.1 kmh 30.24 in1024.0 mb 0.00 in0.0 mm 0.00 in0.0 mm 0.13 in3.3 mm
04:30 PM 36.5°F2.5°C 24.0°F-4.4°C 60% 4.6 mph NNE7.4 kmh NNE 6.0 mph9.7 kmh 30.24 in1024.0 mb 0.00 in0.0 mm 0.00 in0.0 mm 0.13 in3.3 mm
05:00 PM 36.0°F2.2°C 23.4°F-4.8°C 60% 1.9 mph N3.1 kmh N 3.1 mph5.0 kmh 30.26 in1024.7 mb 0.00 in0.0 mm 0.00 in0.0 mm 0.13 in3.3 mm
05:15 PM 35.8°F2.1°C 23.3°F-4.8°C 60% 3.2 mph N5.1 kmh N 5.4 mph8.7 kmh 30.26 in1024.7 mb 0.00 in0.0 mm 0.00 in0.0 mm 0.13 in3.3 mm
05:30 PM 35.2°F1.8°C 23.2°F-4.9°C 61% 2.4 mph N3.9 kmh N 5.4 mph8.7 kmh 30.27 in1025.1 mb 0.00 in0.0 mm 0.00 in0.0 mm 0.13 in3.3 mm
05:45 PM 34.9°F1.6°C 22.8°F-5.1°C 61% 2.5 mph N4.0 kmh N 4.5 mph7.2 kmh 30.29 in1025.7 mb 0.00 in0.0 mm 0.00 in0.0 mm 0.13 in3.3 mm
06:00 PM 34.3°F1.3°C 22.7°F-5.2°C 62% 1.2 mph N1.9 kmh N 3.1 mph5.0 kmh 30.29 in1025.7 mb 0.00 in0.0 mm 0.00 in0.0 mm 0.13 in3.3 mm
06:15 PM 33.6°F0.9°C 23.1°F-4.9°C 65% 0.4 mph NNW0.6 kmh NNW 2.2 mph3.5 kmh 30.30 in1026.1 mb 0.00 in0.0 mm 0.00 in0.0 mm 0.13 in3.3 mm
06:30 PM 33.3°F0.7°C 23.9°F-4.5°C 68% 0.1 mph WSW0.2 kmh WSW 0.7 mph1.1 kmh 30.30 in1026.1 mb 0.00 in0.0 mm 0.00 in0.0 mm 0.13 in3.3 mm
06:45 PM 32.5°F0.3°C 24.2°F-4.3°C 71% 0.8 mph N1.3 kmh N 2.2 mph3.5 kmh 30.31 in1026.4 mb 0.00 in0.0 mm 0.00 in0.0 mm 0.13 in3.3 mm
07:00 PM 32.7°F0.4°C 24.7°F-4.1°C 72% 0.6 mph SW1.0 kmh SW 1.6 mph2.6 kmh 30.31 in1026.4 mb 0.00 in0.0 mm 0.00 in0.0 mm 0.13 in3.3 mm
07:15 PM 33.1°F0.6°C 25.7°F-3.5°C 74% 1.2 mph N1.9 kmh N 2.2 mph3.5 kmh 30.32 in1026.8 mb 0.00 in0.0 mm 0.00 in0.0 mm 0.13 in3.3 mm
07:30 PM 33.4°F0.8°C 25.4°F-3.7°C 72% 0.7 mph N1.1 kmh N 3.1 mph5.0 kmh 30.33 in1027.1 mb 0.00 in0.0 mm 0.00 in0.0 mm 0.13 in3.3 mm
07:45 PM 33.6°F0.9°C 25.2°F-3.8°C 71% 1.4 mph N2.3 kmh N 3.8 mph6.1 kmh 30.34 in1027.4 mb 0.00 in0.0 mm 0.00 in0.0 mm 0.13 in3.3 mm
08:00 PM 34.0°F1.1°C 24.9°F-3.9°C 69% 1.1 mph N1.8 kmh N 2.2 mph3.5 kmh 30.34 in1027.4 mb 0.00 in0.0 mm 0.00 in0.0 mm 0.13 in3.3 mm
08:15 PM 33.6°F0.9°C 24.9°F-3.9°C 70% 0.9 mph N1.4 kmh N 1.6 mph2.6 kmh 30.35 in1027.8 mb 0.00 in0.0 mm 0.00 in0.0 mm 0.13 in3.3 mm
08:30 PM 34.3°F1.3°C 24.2°F-4.3°C 66% 2.0 mph N3.2 kmh N 3.8 mph6.1 kmh 30.35 in1027.8 mb 0.00 in0.0 mm 0.00 in0.0 mm 0.13 in3.3 mm
08:45 PM 34.3°F1.3°C 23.1°F-4.9°C 63% 0.8 mph N1.3 kmh N 3.1 mph5.0 kmh 30.36 in1028.1 mb 0.00 in0.0 mm 0.00 in0.0 mm 0.13 in3.3 mm
09:00 PM 34.2°F1.2°C 23.6°F-4.7°C 65% 1.3 mph SW2.1 kmh SW 2.2 mph3.5 kmh 30.37 in1028.4 mb 0.00 in0.0 mm 0.00 in0.0 mm 0.13 in3.3 mm
09:15 PM 34.3°F1.3°C 24.5°F-4.2°C 67% 1.8 mph NW2.9 kmh NW 3.1 mph5.0 kmh 30.38 in1028.8 mb 0.00 in0.0 mm 0.00 in0.0 mm 0.13 in3.3 mm
09:30 PM 34.3°F1.3°C 24.9°F-3.9°C 68% 0.3 mph N0.5 kmh N 1.6 mph2.6 kmh 30.39 in1029.1 mb 0.00 in0.0 mm 0.00 in0.0 mm 0.13 in3.3 mm
09:45 PM 34.0°F1.1°C 24.9°F-3.9°C 69% 0.1 mph SW0.2 kmh SW 0.7 mph1.1 kmh 30.39 in1029.1 mb 0.00 in0.0 mm 0.00 in0.0 mm 0.13 in3.3 mm
10:00 PM 33.4°F0.8°C 25.1°F-3.8°C 71% 0.1 mph SW0.2 kmh SW 0.7 mph1.1 kmh 30.40 in1029.5 mb 0.00 in0.0 mm 0.00 in0.0 mm 0.13 in3.3 mm
10:15 PM 33.1°F0.6°C 25.4°F-3.7°C 73% 0.1 mph SW0.2 kmh SW 0.7 mph1.1 kmh 30.39 in1029.1 mb 0.00 in0.0 mm 0.00 in0.0 mm 0.13 in3.3 mm
10:45 PM 32.0°F0.0°C 25.3°F-3.7°C 76% Calm Calm -- 30.42 in1030.1 mb 0.00 in0.0 mm 0.00 in0.0 mm 0.13 in3.3 mm
11:00 PM 31.6°F-0.2°C 25.9°F-3.4°C 79% 0.1 mph SW0.2 kmh SW 0.7 mph1.1 kmh 30.42 in1030.1 mb 0.00 in0.0 mm 0.00 in0.0 mm 0.13 in3.3 mm
11:15 PM 31.3°F-0.4°C 25.8°F-3.4°C 80% 0.2 mph SW0.3 kmh SW 0.7 mph1.1 kmh 30.42 in1030.1 mb 0.00 in0.0 mm 0.00 in0.0 mm 0.13 in3.3 mm
11:45 PM 29.5°F-1.4°C 24.7°F-4.1°C 82% 0.5 mph SW0.8 kmh SW 1.6 mph2.6 kmh 30.42 in1030.1 mb 0.00 in0.0 mm 0.00 in0.0 mm 0.13 in3.3 mm